Time;durP1;ratioP1;P1;durP2;ratioP2;P2;SDS_P1;SDS_P2;PMS_P1;PMS_P2;Temp;Humidity;BMP_temperature;BMP_pressure;BME280_temperature;BME280_humidity;BME280_pressure;Samples;Min_cycle;Max_cycle;Signal;HPM_P1;HPM_P2
2022/07/03 00:00:26;;;;;;;;;;;;;;;;;;1039756;28;3600;-46
2022/07/03 00:01:07;;;;;;;;;;;;;;;;;;1039946;28;3792;-48
2022/07/03 00:01:38;;;;;;;;;;;;;;;;;;1042581;28;3505;-50
2022/07/03 00:02:08;;;;;;;;;;;;;;;;;;1042914;28;4960;-47
2022/07/03 00:02:39;;;;;;;;;;;;;;;;;;1042501;28;3610;-50
2022/07/03 00:03:09;;;;;;;;;;;;;;;;;;1041246;28;3918;-50
2022/07/03 00:03:39;;;;;;;;;;;;;;;;;;1042809;28;1339;-50
2022/07/03 00:04:09;;;;;;;;;;;;;;;;;;1040224;28;4009;-45
2022/07/03 00:04:40;;;;;;;;;;;;;;;;;;1041073;28;2895;-46
2022/07/03 00:05:10;;;;;;;;;;;;;;;;;;1044662;28;4424;-48
2022/07/03 00:05:40;;;;;;;;;;;;;;;;;;1045806;28;1419;-48
2022/07/03 00:06:11;;;;;;;;;;;;;;;;;;1043493;28;3804;-50
2022/07/03 00:06:41;;;;;;;;;;;;;;;;;;1045880;28;1175;-45
2022/07/03 00:07:11;;;;;;;;;;;;;;;;;;1040991;28;3860;-45
2022/07/03 00:07:41;;;;;;;;;;;;;;;;;;1040967;28;2205;-49
2022/07/03 00:08:12;;;;;;;;;;;;;;;;;;1038276;28;3868;-49
2022/07/03 00:08:42;;;;;;;;;;;;;;;;;;1040795;28;4125;-48
2022/07/03 00:09:13;;;;;;;;;;;;;;;;;;1040291;28;3839;-52
2022/07/03 00:09:43;;;;;;;;;;;;;;;;;;1041083;28;1808;-48
2022/07/03 00:10:13;;;;;;;;;;;;;;;;;;1038746;28;4503;-49
2022/07/03 00:10:43;;;;;;;;;;;;;;;;;;1039795;28;3754;-47
2022/07/03 00:11:14;;;;;;;;;;;;;;;;;;1039156;28;3779;-52
2022/07/03 00:11:45;;;;;;;;;;;;;;;;;;1041729;28;3464;-45
2022/07/03 00:12:15;;;;;;;;;;;;;;;;;;1041718;28;3890;-51
2022/07/03 00:12:46;;;;;;;;;;;;;;;;;;1039392;28;3720;-48
2022/07/03 00:13:16;;;;;;;;;;;;;;;;;;1040437;28;3951;-48
2022/07/03 00:13:46;;;;;;;;;;;;;;;;;;1041283;28;3979;-50
2022/07/03 00:14:17;;;;;;;;;;;;;;;;;;1040955;28;1284;-50
2022/07/03 00:14:48;;;;;;;;;;;;;;;;;;1041448;28;4031;-50
2022/07/03 00:15:19;;;;;;;;;;;;;;;;;;1039974;28;3717;-50
2022/07/03 00:15:49;;;;;;;;;;;;;;;;;;1042685;28;4414;-50
2022/07/03 00:16:19;;;;;;;;;;;;;;;;;;1042077;28;1583;-48
2022/07/03 00:16:50;;;;;;;;;;;;;;;;;;1040031;28;4398;-52
2022/07/03 00:17:20;;;;;;;;;;;;;;;;;;1040537;28;1721;-52
2022/07/03 00:17:50;;;;;;;;;;;;;;;;;;1042161;28;4451;-49
2022/07/03 00:18:20;;;;;;;;;;;;;;;;;;1041361;28;1521;-49
2022/07/03 00:18:51;;;;;;;;;;;;;;;;;;1040289;28;4076;-47
2022/07/03 00:19:21;;;;;;;;;;;;;;;;;;1039373;28;4124;-47
2022/07/03 00:19:51;;;;;;;;;;;;;;;;;;1039793;28;4257;-48
2022/07/03 00:20:23;;;;;;;;;;;;;;;;;;1039991;28;1790;-48
2022/07/03 00:20:58;;;;;;;;;;;;;;;;;;1040606;28;4395;-49
2022/07/03 00:21:31;;;;;;;;;;;;;;;;;;1031690;28;3907;-49
2022/07/03 00:22:05;;;;;;;;;;;;;;;;;;1034603;28;4631;-53
2022/07/03 00:22:37;;;;;;;;;;;;;;;;;;1036310;28;3893;-50
2022/07/03 00:23:09;;;;;;;;;;;;;;;;;;1035724;28;3800;-49
2022/07/03 00:23:42;;;;;;;;;;;;;;;;;;1040811;28;4439;-49
2022/07/03 00:24:23;;;;;;;;;;;;;;;;;;1039534;28;4422;-52
2022/07/03 00:24:58;;;;;;;;;;;;;;;;;;1040385;28;4347;-47
2022/07/03 00:25:28;;;;;;;;;;;;;;;;;;1039057;28;3467;-48
2022/07/03 00:26:01;;;;;;;;;;;;;;;;;;1041145;28;4040;-47
2022/07/03 00:26:34;;;;;;;;;;;;;;;;;;1039068;28;3970;-48
2022/07/03 00:27:07;;;;;;;;;;;;;;;;;;1040653;28;3792;-45
2022/07/03 00:27:38;;;;;;;;;;;;;;;;;;1039895;28;1597;-47
2022/07/03 00:28:09;;;;;;;;;;;;;;;;;;1039838;28;4205;-48
2022/07/03 00:28:41;;;;;;;;;;;;;;;;;;1039800;28;3455;-51
2022/07/03 00:29:12;;;;;;;;;;;;;;;;;;1039636;28;4064;-49
2022/07/03 00:29:44;;;;;;;;;;;;;;;;;;1042225;28;1581;-49
2022/07/03 00:30:27;;;;;;;;;;;;;;;;;;1028409;28;3910;-49
2022/07/03 00:31:06;;;;;;;;;;;;;;;;;;1027286;28;4021;-52
2022/07/03 00:31:36;;;;;;;;;;;;;;;;;;1031861;28;1804;-49
2022/07/03 00:32:10;;;;;;;;;;;;;;;;;;1036122;28;3828;-50
2022/07/03 00:32:42;;;;;;;;;;;;;;;;;;1037039;28;1102;-49
2022/07/03 00:33:13;;;;;;;;;;;;;;;;;;1036274;28;4409;-46
2022/07/03 00:33:44;;;;;;;;;;;;;;;;;;1035235;28;3229;-47
2022/07/03 00:34:15;;;;;;;;;;;;;;;;;;1035729;28;3792;-52
2022/07/03 00:34:46;;;;;;;;;;;;;;;;;;1038664;28;1778;-53
2022/07/03 00:35:17;;;;;;;;;;;;;;;;;;1035578;28;3723;-48
2022/07/03 00:35:48;;;;;;;;;;;;;;;;;;1028049;28;3947;-51
2022/07/03 00:36:20;;;;;;;;;;;;;;;;;;1030190;28;1411;-54
2022/07/03 00:36:50;;;;;;;;;;;;;;;;;;1030870;28;4119;-48
2022/07/03 00:37:20;;;;;;;;;;;;;;;;;;1029209;28;3905;-48
2022/07/03 00:37:51;;;;;;;;;;;;;;;;;;1035722;28;4094;-49
2022/07/03 00:38:22;;;;;;;;;;;;;;;;;;1037335;28;3851;-50
2022/07/03 00:38:52;;;;;;;;;;;;;;;;;;1035771;28;4224;-51
2022/07/03 00:39:22;;;;;;;;;;;;;;;;;;1041040;28;3961;-47
2022/07/03 00:40:00;;;;;;;;;;;;;;;;;;1037709;28;3892;-51
2022/07/03 00:40:30;;;;;;;;;;;;;;;;;;1034906;28;3884;-49
2022/07/03 00:41:02;;;;;;;;;;;;;;;;;;1036598;28;4219;-49
2022/07/03 00:41:34;;;;;;;;;;;;;;;;;;1041527;28;1910;-48
2022/07/03 00:42:05;;;;;;;;;;;;;;;;;;1035928;28;3816;-46
2022/07/03 00:42:37;;;;;;;;;;;;;;;;;;1035417;28;2161;-51
2022/07/03 00:43:09;;;;;;;;;;;;;;;;;;1035427;28;4330;-48
2022/07/03 00:43:39;;;;;;;;;;;;;;;;;;1035444;28;4154;-46
2022/07/03 00:44:09;;;;;;;;;;;;;;;;;;1037083;28;3962;-53
2022/07/03 00:44:59;;;;;;;;;;;;;;;;;;1036091;28;3736;-49
2022/07/03 00:45:33;;;;;;;;;;;;;;;;;;1035638;28;3726;-47
2022/07/03 00:46:07;;;;;;;;;;;;;;;;;;1037897;28;4173;-47
2022/07/03 00:46:41;;;;;;;;;;;;;;;;;;1037457;28;1759;-48
2022/07/03 00:47:11;;;;;;;;;;;;;;;;;;1037209;28;3895;-47
2022/07/03 00:47:42;;;;;;;;;;;;;;;;;;1038396;28;1435;-49
2022/07/03 00:48:16;;;;;;;;;;;;;;;;;;1040444;28;4166;-51
2022/07/03 00:48:48;;;;;;;;;;;;;;;;;;1038842;28;4558;-47
2022/07/03 00:49:19;;;;;;;;;;;;;;;;;;1037546;28;3285;-51
2022/07/03 00:49:51;;;;;;;;;;;;;;;;;;1035941;28;3827;-49
2022/07/03 00:50:24;;;;;;;;;;;;;;;;;;1036659;28;1483;-48
2022/07/03 00:50:55;;;;;;;;;;;;;;;;;;1036773;28;4551;-51
2022/07/03 00:51:26;;;;;;;;;;;;;;;;;;1040982;28;1588;-49
2022/07/03 00:51:58;;;;;;;;;;;;;;;;;;1038669;28;4648;-48
2022/07/03 00:52:30;;;;;;;;;;;;;;;;;;1039725;28;4120;-48
2022/07/03 00:53:01;;;;;;;;;;;;;;;;;;1035029;28;4079;-48
2022/07/03 00:53:32;;;;;;;;;;;;;;;;;;1037181;28;1713;-51
2022/07/03 00:54:03;;;;;;;;;;;;;;;;;;1036758;28;4035;-49
2022/07/03 00:54:34;;;;;;;;;;;;;;;;;;1037176;28;1668;-49
2022/07/03 00:55:10;;;;;;;;;;;;;;;;;;1036048;28;4381;-48
2022/07/03 00:55:43;;;;;;;;;;;;;;;;;;1035955;28;3566;-47
2022/07/03 00:56:15;;;;;;;;;;;;;;;;;;1034459;28;4243;-49
2022/07/03 00:56:49;;;;;;;;;;;;;;;;;;1037497;28;1607;-51
2022/07/03 00:57:20;;;;;;;;;;;;;;;;;;1037246;28;3934;-47
2022/07/03 00:57:50;;;;;;;;;;;;;;;;;;1036439;28;4049;-45
2022/07/03 00:58:20;;;;;;;;;;;;;;;;;;1037528;28;1873;-47
2022/07/03 00:58:55;;;;;;;;;;;;;;;;;;1037061;28;3970;-48
2022/07/03 00:59:26;;;;;;;;;;;;;;;;;;1036112;28;3580;-47
2022/07/03 00:59:57;;;;;;;;;;;;;;;;;;1037123;28;4058;-47
2022/07/03 01:00:28;;;;;;;;;;;;;;;;;;1034846;28;3984;-47
2022/07/03 01:00:58;;;;;;;;;;;;;;;;;;1036657;28;4145;-46
2022/07/03 01:01:32;;;;;;;;;;;;;;;;;;1037636;28;1538;-49
2022/07/03 01:02:04;;;;;;;;;;;;;;;;;;1037222;28;3800;-49
2022/07/03 01:03:00;;;;;;;;;;;;;;;;;;1036880;28;3822;-49
2022/07/03 01:03:34;;;;;;;;;;;;;;;;;;1034038;28;4086;-49
2022/07/03 01:04:19;;;;;;;;;;;;;;;;;;1035857;28;3879;-49
2022/07/03 01:04:51;;;;;;;;;;;;;;;;;;1037243;28;4205;-49
2022/07/03 01:05:27;;;;;;;;;;;;;;;;;;1037331;28;1930;-52
2022/07/03 01:06:02;;;;;;;;;;;;;;;;;;1037336;28;3817;-46
2022/07/03 01:06:34;;;;;;;;;;;;;;;;;;1037345;28;1779;-46
2022/07/03 01:07:13;;;;;;;;;;;;;;;;;;1036654;28;3967;-47
2022/07/03 01:08:03;;;;;;;;;;;;;;;;;;1034543;28;3442;-50
2022/07/03 01:08:33;;;;;;;;;;;;;;;;;;1034680;28;3777;-48
2022/07/03 01:09:05;;;;;;;;;;;;;;;;;;1035424;28;4457;-47
2022/07/03 01:09:50;;;;;;;;;;;;;;;;;;1034204;28;3524;-50
2022/07/03 01:10:36;;;;;;;;;;;;;;;;;;1035718;28;4866;-51
2022/07/03 01:11:17;;;;;;;;;;;;;;;;;;1035553;28;4522;-48
2022/07/03 01:11:51;;;;;;;;;;;;;;;;;;1036181;28;4168;-47
2022/07/03 01:12:40;;;;;;;;;;;;;;;;;;1037183;28;1667;-49
2022/07/03 01:13:13;;;;;;;;;;;;;;;;;;1035505;28;4259;-48
2022/07/03 01:13:53;;;;;;;;;;;;;;;;;;1036920;28;3869;-48
2022/07/03 01:14:38;;;;;;;;;;;;;;;;;;1035306;28;3645;-46
2022/07/03 01:15:14;;;;;;;;;;;;;;;;;;1034959;28;4218;-49
2022/07/03 01:15:44;;;;;;;;;;;;;;;;;;1041286;28;2950;-48
2022/07/03 01:16:33;;;;;;;;;;;;;;;;;;1035745;28;5130;-47
2022/07/03 01:17:04;;;;;;;;;;;;;;;;;;1034245;28;3835;-52
2022/07/03 01:17:38;;;;;;;;;;;;;;;;;;1038203;28;1614;-47
2022/07/03 01:18:14;;;;;;;;;;;;;;;;;;1036698;28;4072;-47
2022/07/03 01:18:48;;;;;;;;;;;;;;;;;;1036022;28;1642;-48
2022/07/03 01:19:46;;;;;;;;;;;;;;;;;;1036223;28;3900;-49
2022/07/03 01:20:20;;;;;;;;;;;;;;;;;;1037125;28;3893;-51
2022/07/03 01:20:53;;;;;;;;;;;;;;;;;;1036594;28;4218;-52
2022/07/03 01:21:40;;;;;;;;;;;;;;;;;;1034260;28;4029;-51
2022/07/03 01:22:11;;;;;;;;;;;;;;;;;;1034877;28;4069;-53
2022/07/03 01:22:48;;;;;;;;;;;;;;;;;;1036616;28;1847;-48
2022/07/03 01:23:39;;;;;;;;;;;;;;;;;;1034266;28;3704;-47
2022/07/03 01:24:18;;;;;;;;;;;;;;;;;;1034441;28;3898;-48
2022/07/03 01:25:11;;;;;;;;;;;;;;;;;;1034672;28;3921;-48
2022/07/03 01:25:44;;;;;;;;;;;;;;;;;;1036845;28;1637;-51
2022/07/03 01:26:15;;;;;;;;;;;;;;;;;;1035676;28;3927;-49
2022/07/03 01:26:46;;;;;;;;;;;;;;;;;;1037687;28;1526;-53
2022/07/03 01:27:19;;;;;;;;;;;;;;;;;;1036272;28;4031;-47
2022/07/03 01:27:52;;;;;;;;;;;;;;;;;;1036884;28;4083;-49
2022/07/03 01:28:23;;;;;;;;;;;;;;;;;;1035826;28;3423;-50
2022/07/03 01:28:54;;;;;;;;;;;;;;;;;;1035459;28;3908;-50
2022/07/03 01:29:28;;;;;;;;;;;;;;;;;;1034587;28;4081;-47
2022/07/03 01:30:13;;;;;;;;;;;;;;;;;;1036103;28;4402;-51
2022/07/03 01:30:52;;;;;;;;;;;;;;;;;;1044743;28;4426;-52
2022/07/03 01:31:23;;;;;;;;;;;;;;;;;;1040710;28;1331;-51
2022/07/03 01:31:53;;;;;;;;;;;;;;;;;;1040228;28;3877;-51
2022/07/03 01:32:27;;;;;;;;;;;;;;;;;;1041309;28;1872;-53
2022/07/03 01:33:03;;;;;;;;;;;;;;;;;;1041729;28;3897;-47
2022/07/03 01:33:35;;;;;;;;;;;;;;;;;;1033219;28;1700;-50
2022/07/03 01:34:09;;;;;;;;;;;;;;;;;;1035701;28;3825;-48
2022/07/03 01:34:42;;;;;;;;;;;;;;;;;;1034939;28;3302;-50
2022/07/03 01:35:13;;;;;;;;;;;;;;;;;;1036702;28;5051;-48
2022/07/03 01:35:49;;;;;;;;;;;;;;;;;;1040293;28;3802;-49
2022/07/03 01:36:21;;;;;;;;;;;;;;;;;;1039788;28;3856;-47
2022/07/03 01:36:54;;;;;;;;;;;;;;;;;;1038353;28;4270;-50
2022/07/03 01:37:27;;;;;;;;;;;;;;;;;;1040824;28;1605;-50
2022/07/03 01:38:01;;;;;;;;;;;;;;;;;;1039060;28;4287;-49
2022/07/03 01:38:35;;;;;;;;;;;;;;;;;;1039550;28;4420;-45
2022/07/03 01:39:07;;;;;;;;;;;;;;;;;;1040995;28;4073;-50
2022/07/03 01:39:38;;;;;;;;;;;;;;;;;;1040869;28;1543;-47
2022/07/03 01:40:09;;;;;;;;;;;;;;;;;;1040416;28;4046;-53
2022/07/03 01:40:40;;;;;;;;;;;;;;;;;;1040479;28;4079;-48
2022/07/03 01:41:11;;;;;;;;;;;;;;;;;;1039293;28;4043;-50
2022/07/03 01:41:44;;;;;;;;;;;;;;;;;;1039479;28;4408;-50
2022/07/03 01:42:15;;;;;;;;;;;;;;;;;;1041767;28;4027;-46
2022/07/03 01:42:46;;;;;;;;;;;;;;;;;;1040246;28;1652;-50
2022/07/03 01:43:18;;;;;;;;;;;;;;;;;;1039437;28;3966;-48
2022/07/03 01:43:55;;;;;;;;;;;;;;;;;;1039633;28;4146;-51
2022/07/03 01:44:26;;;;;;;;;;;;;;;;;;1040785;28;1595;-47
2022/07/03 01:44:58;;;;;;;;;;;;;;;;;;1038698;28;4181;-53
2022/07/03 01:45:30;;;;;;;;;;;;;;;;;;1041572;28;3495;-49
2022/07/03 01:46:01;;;;;;;;;;;;;;;;;;1039587;28;4263;-48
2022/07/03 01:46:32;;;;;;;;;;;;;;;;;;1041313;28;1528;-52
2022/07/03 01:47:03;;;;;;;;;;;;;;;;;;1038676;28;4277;-49
2022/07/03 01:47:34;;;;;;;;;;;;;;;;;;1039680;28;1568;-51
2022/07/03 01:48:05;;;;;;;;;;;;;;;;;;1039040;28;4192;-50
2022/07/03 01:48:36;;;;;;;;;;;;;;;;;;1039833;28;3692;-49
2022/07/03 01:49:08;;;;;;;;;;;;;;;;;;1040793;28;3852;-47
2022/07/03 01:49:40;;;;;;;;;;;;;;;;;;1040334;28;3519;-49
2022/07/03 01:50:12;;;;;;;;;;;;;;;;;;1039953;28;3855;-49
2022/07/03 01:50:42;;;;;;;;;;;;;;;;;;1039757;28;3539;-48
2022/07/03 01:51:14;;;;;;;;;;;;;;;;;;1038514;28;3794;-50
2022/07/03 01:51:45;;;;;;;;;;;;;;;;;;1040258;28;4620;-47
2022/07/03 01:52:16;;;;;;;;;;;;;;;;;;1040001;28;4493;-48
2022/07/03 01:52:47;;;;;;;;;;;;;;;;;;1040438;28;4042;-48
2022/07/03 01:53:18;;;;;;;;;;;;;;;;;;1040862;28;1698;-48
2022/07/03 01:53:49;;;;;;;;;;;;;;;;;;1041239;28;4375;-49
2022/07/03 01:54:20;;;;;;;;;;;;;;;;;;1040132;28;1602;-48
2022/07/03 01:54:51;;;;;;;;;;;;;;;;;;1041795;28;3896;-49
2022/07/03 01:55:22;;;;;;;;;;;;;;;;;;1040305;28;3357;-49
2022/07/03 01:55:59;;;;;;;;;;;;;;;;;;1039496;28;4067;-48
2022/07/03 01:56:32;;;;;;;;;;;;;;;;;;1039812;28;2639;-45
2022/07/03 01:57:05;;;;;;;;;;;;;;;;;;1040076;28;3889;-48
2022/07/03 01:57:45;;;;;;;;;;;;;;;;;;1040008;28;2450;-51
2022/07/03 01:58:16;;;;;;;;;;;;;;;;;;1039737;28;4286;-52
2022/07/03 01:58:46;;;;;;;;;;;;;;;;;;1041841;28;4002;-48
2022/07/03 01:59:17;;;;;;;;;;;;;;;;;;1045111;28;2533;-45
2022/07/03 01:59:47;;;;;;;;;;;;;;;;;;1045610;28;4068;-52
2022/07/03 02:00:21;;;;;;;;;;;;;;;;;;1043820;28;3733;-53
2022/07/03 02:00:51;;;;;;;;;;;;;;;;;;1045171;28;4408;-51
2022/07/03 02:01:25;;;;;;;;;;;;;;;;;;1043989;28;4241;-46
2022/07/03 02:02:04;;;;;;;;;;;;;;;;;;1042922;28;4041;-48
2022/07/03 02:02:38;;;;;;;;;;;;;;;;;;1045923;28;3933;-48
2022/07/03 02:03:08;;;;;;;;;;;;;;;;;;1038775;28;3967;-48
2022/07/03 02:03:41;;;;;;;;;;;;;;;;;;1040364;28;1760;-50
2022/07/03 02:04:20;;;;;;;;;;;;;;;;;;1038856;28;3842;-47
2022/07/03 02:04:58;;;;;;;;;;;;;;;;;;1038227;28;4292;-47
2022/07/03 02:05:48;;;;;;;;;;;;;;;;;;1040146;28;1683;-49
2022/07/03 02:06:38;;;;;;;;;;;;;;;;;;1039298;28;3882;-52
2022/07/03 02:07:15;;;;;;;;;;;;;;;;;;1039675;28;4365;-48
2022/07/03 02:07:57;;;;;;;;;;;;;;;;;;1040609;28;1409;-48
2022/07/03 02:08:46;;;;;;;;;;;;;;;;;;1039984;28;3847;-49
2022/07/03 02:09:18;;;;;;;;;;;;;;;;;;1039387;28;3848;-45
2022/07/03 02:09:54;;;;;;;;;;;;;;;;;;1039951;28;4390;-48
2022/07/03 02:10:28;;;;;;;;;;;;;;;;;;1038604;28;3414;-49
2022/07/03 02:11:08;;;;;;;;;;;;;;;;;;1040368;28;4266;-47
2022/07/03 02:11:40;;;;;;;;;;;;;;;;;;1039432;28;4051;-51
2022/07/03 02:12:12;;;;;;;;;;;;;;;;;;1040583;28;4089;-46
2022/07/03 02:12:51;;;;;;;;;;;;;;;;;;1041257;28;1707;-48
2022/07/03 02:13:27;;;;;;;;;;;;;;;;;;1041800;28;5197;-45
2022/07/03 02:14:32;;;;;;;;;;;;;;;;;;1041366;28;3909;-48
2022/07/03 02:15:04;;;;;;;;;;;;;;;;;;1026891;28;4300;-49
2022/07/03 02:15:35;;;;;;;;;;;;;;;;;;1028541;28;2348;-47
2022/07/03 02:16:07;;;;;;;;;;;;;;;;;;1029158;28;3804;-54
2022/07/03 02:16:58;;;;;;;;;;;;;;;;;;1028362;28;3095;-48
2022/07/03 02:17:33;;;;;;;;;;;;;;;;;;1018221;28;3889;-50
2022/07/03 02:18:09;;;;;;;;;;;;;;;;;;1040228;28;3915;-48
2022/07/03 02:18:40;;;;;;;;;;;;;;;;;;1036768;28;3311;-47
2022/07/03 02:19:11;;;;;;;;;;;;;;;;;;1036577;28;4039;-47
2022/07/03 02:19:59;;;;;;;;;;;;;;;;;;1038362;28;1596;-47
2022/07/03 02:20:33;;;;;;;;;;;;;;;;;;1037319;28;5381;-46
2022/07/03 02:21:14;;;;;;;;;;;;;;;;;;1040136;28;4485;-45
2022/07/03 02:21:49;;;;;;;;;;;;;;;;;;1041190;28;2180;-50
2022/07/03 02:22:21;;;;;;;;;;;;;;;;;;1040427;28;4049;-52
2022/07/03 02:22:56;;;;;;;;;;;;;;;;;;1036875;28;4453;-48
2022/07/03 02:23:28;;;;;;;;;;;;;;;;;;1039737;28;2965;-47
2022/07/03 02:23:58;;;;;;;;;;;;;;;;;;1039025;28;4008;-51
2022/07/03 02:24:33;;;;;;;;;;;;;;;;;;1039966;28;3781;-51
2022/07/03 02:25:08;;;;;;;;;;;;;;;;;;1040325;28;3958;-50
2022/07/03 02:25:40;;;;;;;;;;;;;;;;;;1039672;28;2768;-50
2022/07/03 02:26:12;;;;;;;;;;;;;;;;;;1040218;28;3980;-49
2022/07/03 02:26:45;;;;;;;;;;;;;;;;;;1038475;28;3813;-49
2022/07/03 02:27:19;;;;;;;;;;;;;;;;;;1039703;28;3794;-51
2022/07/03 02:27:56;;;;;;;;;;;;;;;;;;1040082;28;3871;-48
2022/07/03 02:28:38;;;;;;;;;;;;;;;;;;1040123;28;3643;-51
2022/07/03 02:29:17;;;;;;;;;;;;;;;;;;1040363;28;3798;-48
2022/07/03 02:30:08;;;;;;;;;;;;;;;;;;1039623;28;4225;-48
2022/07/03 02:30:55;;;;;;;;;;;;;;;;;;1036137;28;3345;-47
2022/07/03 02:31:39;;;;;;;;;;;;;;;;;;1036668;28;4093;-48
2022/07/03 02:32:13;;;;;;;;;;;;;;;;;;1034938;28;4145;-50
2022/07/03 02:32:47;;;;;;;;;;;;;;;;;;1036767;28;1785;-50
2022/07/03 02:33:19;;;;;;;;;;;;;;;;;;1035797;28;3945;-49
2022/07/03 02:33:50;;;;;;;;;;;;;;;;;;1035318;28;4081;-49
2022/07/03 02:34:23;;;;;;;;;;;;;;;;;;1035665;28;3673;-50
2022/07/03 02:35:12;;;;;;;;;;;;;;;;;;1036273;28;4473;-48
2022/07/03 02:35:44;;;;;;;;;;;;;;;;;;1035901;28;3749;-50
2022/07/03 02:36:16;;;;;;;;;;;;;;;;;;1036840;28;4289;-47
2022/07/03 02:36:48;;;;;;;;;;;;;;;;;;1034976;28;4095;-51
2022/07/03 02:37:19;;;;;;;;;;;;;;;;;;1034384;28;3968;-47
2022/07/03 02:38:10;;;;;;;;;;;;;;;;;;1036698;28;3928;-48
2022/07/03 02:38:43;;;;;;;;;;;;;;;;;;1035800;28;1709;-47
2022/07/03 02:39:15;;;;;;;;;;;;;;;;;;1035483;28;3790;-51
2022/07/03 02:39:54;;;;;;;;;;;;;;;;;;1036810;28;4012;-54
2022/07/03 02:40:45;;;;;;;;;;;;;;;;;;1036020;28;3989;-48
2022/07/03 02:41:21;;;;;;;;;;;;;;;;;;1036802;28;4048;-47
2022/07/03 02:42:01;;;;;;;;;;;;;;;;;;1033514;28;4432;-53
2022/07/03 02:42:39;;;;;;;;;;;;;;;;;;1032084;28;3884;-52
2022/07/03 02:43:28;;;;;;;;;;;;;;;;;;1031782;28;4392;-48
2022/07/03 02:44:04;;;;;;;;;;;;;;;;;;1040300;28;3936;-50
2022/07/03 02:44:38;;;;;;;;;;;;;;;;;;1034847;28;3335;-49
2022/07/03 02:45:11;;;;;;;;;;;;;;;;;;1035234;28;4247;-49
2022/07/03 02:45:50;;;;;;;;;;;;;;;;;;1034957;28;1652;-48
2022/07/03 02:46:50;;;;;;;;;;;;;;;;;;1035880;28;3804;-52
2022/07/03 02:47:32;;;;;;;;;;;;;;;;;;1036759;28;3974;-46
2022/07/03 02:48:07;;;;;;;;;;;;;;;;;;1037009;28;3945;-45
2022/07/03 02:48:40;;;;;;;;;;;;;;;;;;1036918;28;1558;-50
2022/07/03 02:49:13;;;;;;;;;;;;;;;;;;1036763;28;3767;-48
2022/07/03 02:49:58;;;;;;;;;;;;;;;;;;1037254;28;1679;-49
2022/07/03 02:50:31;;;;;;;;;;;;;;;;;;1037632;28;3817;-50
2022/07/03 02:51:09;;;;;;;;;;;;;;;;;;1038159;28;4549;-52
2022/07/03 02:51:41;;;;;;;;;;;;;;;;;;1039722;28;2497;-47
2022/07/03 02:52:28;;;;;;;;;;;;;;;;;;1039362;28;3817;-49
2022/07/03 02:53:03;;;;;;;;;;;;;;;;;;1036223;28;3994;-49
2022/07/03 02:53:37;;;;;;;;;;;;;;;;;;1035794;28;3577;-51
2022/07/03 02:54:15;;;;;;;;;;;;;;;;;;1036972;28;3805;-45
2022/07/03 02:54:46;;;;;;;;;;;;;;;;;;1036500;28;1591;-48
2022/07/03 02:55:32;;;;;;;;;;;;;;;;;;1036762;28;3992;-46
2022/07/03 02:56:05;;;;;;;;;;;;;;;;;;1034323;28;4088;-49
2022/07/03 02:56:55;;;;;;;;;;;;;;;;;;1037193;28;1451;-47
2022/07/03 02:57:33;;;;;;;;;;;;;;;;;;1037299;28;4225;-53
2022/07/03 02:58:04;;;;;;;;;;;;;;;;;;1036093;28;4025;-48
2022/07/03 02:58:34;;;;;;;;;;;;;;;;;;1038805;28;1701;-47
2022/07/03 02:59:07;;;;;;;;;;;;;;;;;;1036387;28;3937;-50
2022/07/03 02:59:40;;;;;;;;;;;;;;;;;;1038690;28;1608;-48
2022/07/03 03:00:11;;;;;;;;;;;;;;;;;;1036438;28;4137;-45
2022/07/03 03:00:48;;;;;;;;;;;;;;;;;;1037563;28;3712;-48
2022/07/03 03:01:34;;;;;;;;;;;;;;;;;;1036289;28;3857;-48
2022/07/03 03:02:14;;;;;;;;;;;;;;;;;;1037251;28;4244;-52
2022/07/03 03:02:44;;;;;;;;;;;;;;;;;;1036903;28;3288;-49
2022/07/03 03:03:17;;;;;;;;;;;;;;;;;;1035882;28;4384;-52
2022/07/03 03:04:08;;;;;;;;;;;;;;;;;;1037771;28;4074;-49
2022/07/03 03:04:41;;;;;;;;;;;;;;;;;;1037162;28;1774;-48
2022/07/03 03:05:20;;;;;;;;;;;;;;;;;;1031474;28;3909;-44
2022/07/03 03:05:54;;;;;;;;;;;;;;;;;;1028083;28;4091;-45
2022/07/03 03:06:25;;;;;;;;;;;;;;;;;;1029618;28;2777;-50
2022/07/03 03:07:02;;;;;;;;;;;;;;;;;;1033878;28;4507;-49
2022/07/03 03:07:34;;;;;;;;;;;;;;;;;;1037135;28;3832;-48
2022/07/03 03:08:10;;;;;;;;;;;;;;;;;;1036743;28;4205;-46
2022/07/03 03:09:01;;;;;;;;;;;;;;;;;;1041023;28;1617;-47
2022/07/03 03:09:39;;;;;;;;;;;;;;;;;;1040048;28;3867;-47
2022/07/03 03:10:11;;;;;;;;;;;;;;;;;;1041270;28;3744;-48
2022/07/03 03:10:43;;;;;;;;;;;;;;;;;;1036402;28;3829;-46
2022/07/03 03:11:23;;;;;;;;;;;;;;;;;;1036868;28;4062;-51
2022/07/03 03:11:55;;;;;;;;;;;;;;;;;;1037433;28;3812;-51
2022/07/03 03:12:36;;;;;;;;;;;;;;;;;;1037934;28;1481;-47
2022/07/03 03:13:08;;;;;;;;;;;;;;;;;;1036895;28;3873;-50
2022/07/03 03:13:39;;;;;;;;;;;;;;;;;;1037470;28;1323;-48
2022/07/03 03:14:11;;;;;;;;;;;;;;;;;;1037130;28;4216;-49
2022/07/03 03:14:43;;;;;;;;;;;;;;;;;;1036600;28;1508;-50
2022/07/03 03:15:13;;;;;;;;;;;;;;;;;;1036280;28;4381;-47
2022/07/03 03:15:47;;;;;;;;;;;;;;;;;;1035650;28;3750;-48
2022/07/03 03:16:17;;;;;;;;;;;;;;;;;;1037070;28;4018;-48
2022/07/03 03:16:51;;;;;;;;;;;;;;;;;;1037226;28;3851;-46
2022/07/03 03:17:25;;;;;;;;;;;;;;;;;;1036108;28;3547;-51
2022/07/03 03:18:00;;;;;;;;;;;;;;;;;;1034763;28;4066;-48
2022/07/03 03:18:38;;;;;;;;;;;;;;;;;;1037099;28;2696;-51
2022/07/03 03:19:10;;;;;;;;;;;;;;;;;;1035170;28;3799;-51
2022/07/03 03:19:45;;;;;;;;;;;;;;;;;;1037639;28;1711;-49
2022/07/03 03:20:16;;;;;;;;;;;;;;;;;;1040344;28;4065;-47
2022/07/03 03:20:46;;;;;;;;;;;;;;;;;;1039013;28;3849;-50
2022/07/03 03:21:17;;;;;;;;;;;;;;;;;;1042348;28;1699;-48
2022/07/03 03:21:55;;;;;;;;;;;;;;;;;;1040768;28;3833;-49
2022/07/03 03:22:35;;;;;;;;;;;;;;;;;;1039220;28;3654;-50
2022/07/03 03:23:08;;;;;;;;;;;;;;;;;;1036844;28;3812;-47
2022/07/03 03:23:46;;;;;;;;;;;;;;;;;;1037350;28;2181;-53
2022/07/03 03:24:17;;;;;;;;;;;;;;;;;;1036333;28;3697;-48
2022/07/03 03:24:47;;;;;;;;;;;;;;;;;;1035789;28;3885;-46
2022/07/03 03:25:18;;;;;;;;;;;;;;;;;;1036287;28;2488;-48
2022/07/03 03:25:50;;;;;;;;;;;;;;;;;;1036143;28;3938;-46
2022/07/03 03:26:24;;;;;;;;;;;;;;;;;;1034881;28;3535;-48
2022/07/03 03:26:56;;;;;;;;;;;;;;;;;;1037176;28;4063;-49
2022/07/03 03:27:27;;;;;;;;;;;;;;;;;;1033131;28;3659;-47
2022/07/03 03:27:58;;;;;;;;;;;;;;;;;;1033274;28;3854;-45
2022/07/03 03:28:29;;;;;;;;;;;;;;;;;;1036918;28;1649;-50
2022/07/03 03:28:59;;;;;;;;;;;;;;;;;;1036866;28;4039;-49
2022/07/03 03:29:30;;;;;;;;;;;;;;;;;;1037148;28;1556;-48
2022/07/03 03:30:07;;;;;;;;;;;;;;;;;;1036991;28;4045;-48
2022/07/03 03:30:44;;;;;;;;;;;;;;;;;;1044067;28;1782;-47
2022/07/03 03:31:29;;;;;;;;;;;;;;;;;;1043600;28;5247;-48
2022/07/03 03:32:05;;;;;;;;;;;;;;;;;;1045515;28;3872;-49
2022/07/03 03:32:36;;;;;;;;;;;;;;;;;;1044554;28;3793;-48
2022/07/03 03:33:10;;;;;;;;;;;;;;;;;;1040833;28;4963;-49
2022/07/03 03:33:41;;;;;;;;;;;;;;;;;;1041630;28;1787;-49
2022/07/03 03:34:12;;;;;;;;;;;;;;;;;;1040858;28;4104;-48
2022/07/03 03:34:42;;;;;;;;;;;;;;;;;;1037668;28;3527;-47
2022/07/03 03:35:13;;;;;;;;;;;;;;;;;;1038047;28;4241;-48
2022/07/03 03:35:43;;;;;;;;;;;;;;;;;;1035576;28;2659;-50
2022/07/03 03:36:17;;;;;;;;;;;;;;;;;;1033573;28;4039;-47
2022/07/03 03:36:48;;;;;;;;;;;;;;;;;;1036568;28;3942;-45
2022/07/03 03:37:18;;;;;;;;;;;;;;;;;;1042769;28;1700;-48
2022/07/03 03:37:48;;;;;;;;;;;;;;;;;;1040624;28;3844;-51
2022/07/03 03:38:19;;;;;;;;;;;;;;;;;;1046147;28;1284;-52
2022/07/03 03:38:56;;;;;;;;;;;;;;;;;;1043990;28;3893;-50
2022/07/03 03:39:27;;;;;;;;;;;;;;;;;;1045314;28;3847;-48
2022/07/03 03:39:57;;;;;;;;;;;;;;;;;;1045411;28;3913;-44
2022/07/03 03:40:28;;;;;;;;;;;;;;;;;;1045362;28;1619;-49
2022/07/03 03:40:58;;;;;;;;;;;;;;;;;;1044801;28;4492;-49
2022/07/03 03:41:29;;;;;;;;;;;;;;;;;;1044461;28;3243;-50
2022/07/03 03:42:01;;;;;;;;;;;;;;;;;;1045025;28;4341;-51
2022/07/03 03:42:31;;;;;;;;;;;;;;;;;;1045398;28;1684;-49
2022/07/03 03:43:02;;;;;;;;;;;;;;;;;;1041228;28;3801;-49
2022/07/03 03:43:32;;;;;;;;;;;;;;;;;;1040253;28;3713;-50
2022/07/03 03:44:03;;;;;;;;;;;;;;;;;;1039807;28;3909;-47
2022/07/03 03:44:33;;;;;;;;;;;;;;;;;;1042235;28;1943;-47
2022/07/03 03:45:03;;;;;;;;;;;;;;;;;;1045122;28;3816;-51
2022/07/03 03:45:34;;;;;;;;;;;;;;;;;;1044652;28;2600;-50
2022/07/03 03:46:04;;;;;;;;;;;;;;;;;;1044190;28;3949;-48
2022/07/03 03:46:34;;;;;;;;;;;;;;;;;;1044236;28;2480;-47
2022/07/03 03:47:05;;;;;;;;;;;;;;;;;;1041842;28;3819;-53
2022/07/03 03:47:35;;;;;;;;;;;;;;;;;;1041956;28;1626;-50
2022/07/03 03:48:05;;;;;;;;;;;;;;;;;;1041403;28;3953;-49
2022/07/03 03:48:36;;;;;;;;;;;;;;;;;;1037596;28;2592;-47
2022/07/03 03:49:06;;;;;;;;;;;;;;;;;;1039847;28;3808;-51
2022/07/03 03:49:36;;;;;;;;;;;;;;;;;;1040800;28;1875;-50
2022/07/03 03:50:07;;;;;;;;;;;;;;;;;;1040336;28;3830;-45
2022/07/03 03:50:37;;;;;;;;;;;;;;;;;;1045234;28;1801;-48
2022/07/03 03:51:07;;;;;;;;;;;;;;;;;;1043816;28;4229;-47
2022/07/03 03:51:38;;;;;;;;;;;;;;;;;;1045951;28;1985;-50
2022/07/03 03:52:09;;;;;;;;;;;;;;;;;;1044761;28;4276;-49
2022/07/03 03:52:39;;;;;;;;;;;;;;;;;;1045232;28;1927;-47
2022/07/03 03:53:11;;;;;;;;;;;;;;;;;;1044342;28;3957;-50
2022/07/03 03:53:42;;;;;;;;;;;;;;;;;;1040996;28;3497;-45
2022/07/03 03:54:12;;;;;;;;;;;;;;;;;;1042116;28;4235;-46
2022/07/03 03:54:43;;;;;;;;;;;;;;;;;;1042039;28;1728;-48
2022/07/03 03:55:13;;;;;;;;;;;;;;;;;;1042117;28;3901;-46
2022/07/03 03:55:58;;;;;;;;;;;;;;;;;;1046038;28;1622;-52
2022/07/03 03:56:28;;;;;;;;;;;;;;;;;;1045654;28;3936;-49
2022/07/03 03:57:34;;;;;;;;;;;;;;;;;;1043395;28;4109;-49
2022/07/03 03:58:05;;;;;;;;;;;;;;;;;;1028339;28;4336;-48